Huzhou, China
Current Conditions -  °F | °C
As of 6:00 PM on Wednesday 22 Oct 2014 (Local Time) from ZSHC Reporting Station
Haze Haze  
Wind Chill: 66°   Ceiling: Unl
Heat Index: 66°   Visibility: 3mi
Dew Point: 50°   Wind: 7mph
Humidity: 56%   Direction: 20°NNE
Pressure: 30.18"   Gusts: NA
Location:  30.87°N, 120.1°E
Report Text: ZSHC 221000Z 02003MPS 5000 HZ NSC 19/10 Q1022 NOSIG
Loading
Personal Weather Stations






























Interactive Weather Map
Tropical Storm Tracking
New forecast layout! Learn more

10-Day Weather Forecast

Advertisements
Track Severe Weather on mobile